sensor_id;sensor_type;location;lat;lon;timestamp;P1;durP1;ratioP1;P2;durP2;ratioP2
55063;SDS011;40963;52.168;21.296;2023-01-25T00:01:56;45.60;;;18.63;;
55063;SDS011;40963;52.168;21.296;2023-01-25T00:04:22;44.70;;;17.25;;
55063;SDS011;40963;52.168;21.296;2023-01-25T00:06:48;47.35;;;18.10;;
55063;SDS011;40963;52.168;21.296;2023-01-25T00:09:14;48.45;;;18.38;;
55063;SDS011;40963;52.168;21.296;2023-01-25T00:11:41;51.55;;;19.52;;
55063;SDS011;40963;52.168;21.296;2023-01-25T00:14:08;55.30;;;19.05;;
55063;SDS011;40963;52.168;21.296;2023-01-25T00:16:34;49.40;;;19.55;;
55063;SDS011;40963;52.168;21.296;2023-01-25T00:19:01;45.40;;;18.38;;
55063;SDS011;40963;52.168;21.296;2023-01-25T00:21:26;48.35;;;19.25;;
55063;SDS011;40963;52.168;21.296;2023-01-25T00:23:52;47.03;;;19.10;;
55063;SDS011;40963;52.168;21.296;2023-01-25T00:26:18;50.85;;;19.42;;
55063;SDS011;40963;52.168;21.296;2023-01-25T00:28:48;52.45;;;20.10;;
55063;SDS011;40963;52.168;21.296;2023-01-25T00:31:16;52.53;;;20.02;;
55063;SDS011;40963;52.168;21.296;2023-01-25T00:34:05;47.85;;;18.58;;
55063;SDS011;40963;52.168;21.296;2023-01-25T00:39:19;45.53;;;18.13;;
55063;SDS011;40963;52.168;21.296;2023-01-25T00:41:45;38.30;;;17.30;;
55063;SDS011;40963;52.168;21.296;2023-01-25T00:44:11;50.10;;;18.52;;
55063;SDS011;40963;52.168;21.296;2023-01-25T00:46:36;44.03;;;17.77;;
55063;SDS011;40963;52.168;21.296;2023-01-25T00:49:02;47.90;;;19.30;;
55063;SDS011;40963;52.168;21.296;2023-01-25T00:51:27;43.35;;;17.00;;
55063;SDS011;40963;52.168;21.296;2023-01-25T00:53:53;52.25;;;19.35;;
55063;SDS011;40963;52.168;21.296;2023-01-25T00:56:19;39.55;;;15.63;;
55063;SDS011;40963;52.168;21.296;2023-01-25T00:58:44;42.47;;;17.35;;
55063;SDS011;40963;52.168;21.296;2023-01-25T01:01:10;39.08;;;17.35;;
55063;SDS011;40963;52.168;21.296;2023-01-25T01:03:36;38.13;;;15.98;;
55063;SDS011;40963;52.168;21.296;2023-01-25T01:06:04;41.28;;;16.10;;
55063;SDS011;40963;52.168;21.296;2023-01-25T01:08:32;38.10;;;16.63;;
55063;SDS011;40963;52.168;21.296;2023-01-25T01:11:01;33.25;;;14.63;;
55063;SDS011;40963;52.168;21.296;2023-01-25T01:13:28;39.90;;;15.18;;
55063;SDS011;40963;52.168;21.296;2023-01-25T01:15:54;34.03;;;14.18;;
55063;SDS011;40963;52.168;21.296;2023-01-25T01:18:20;33.13;;;13.98;;
55063;SDS011;40963;52.168;21.296;2023-01-25T01:20:49;42.03;;;14.23;;
55063;SDS011;40963;52.168;21.296;2023-01-25T01:23:16;34.80;;;14.45;;
55063;SDS011;40963;52.168;21.296;2023-01-25T01:25:41;30.67;;;14.77;;
55063;SDS011;40963;52.168;21.296;2023-01-25T01:28:07;40.13;;;15.38;;
55063;SDS011;40963;52.168;21.296;2023-01-25T01:30:33;38.75;;;15.90;;
55063;SDS011;40963;52.168;21.296;2023-01-25T01:32:58;36.50;;;15.23;;
55063;SDS011;40963;52.168;21.296;2023-01-25T01:35:24;37.70;;;13.15;;
55063;SDS011;40963;52.168;21.296;2023-01-25T01:37:50;38.67;;;16.80;;
55063;SDS011;40963;52.168;21.296;2023-01-25T01:40:15;39.17;;;14.13;;
55063;SDS011;40963;52.168;21.296;2023-01-25T01:43:01;36.50;;;13.43;;
55063;SDS011;40963;52.168;21.296;2023-01-25T01:50:50;31.80;;;12.00;;
55063;SDS011;40963;52.168;21.296;2023-01-25T01:53:19;28.88;;;13.10;;
55063;SDS011;40963;52.168;21.296;2023-01-25T01:55:47;40.33;;;13.48;;
55063;SDS011;40963;52.168;21.296;2023-01-25T01:58:13;31.10;;;13.40;;
55063;SDS011;40963;52.168;21.296;2023-01-25T02:00:39;32.65;;;14.35;;
55063;SDS011;40963;52.168;21.296;2023-01-25T02:03:05;31.65;;;12.93;;
55063;SDS011;40963;52.168;21.296;2023-01-25T02:08:09;29.48;;;14.05;;
55063;SDS011;40963;52.168;21.296;2023-01-25T02:10:40;35.50;;;15.07;;
55063;SDS011;40963;52.168;21.296;2023-01-25T02:13:08;28.52;;;14.20;;
55063;SDS011;40963;52.168;21.296;2023-01-25T02:15:38;33.15;;;14.93;;
55063;SDS011;40963;52.168;21.296;2023-01-25T02:18:11;32.97;;;13.65;;
55063;SDS011;40963;52.168;21.296;2023-01-25T02:20:39;31.67;;;14.30;;
55063;SDS011;40963;52.168;21.296;2023-01-25T02:25:49;28.88;;;12.77;;
55063;SDS011;40963;52.168;21.296;2023-01-25T02:28:35;31.75;;;12.85;;
55063;SDS011;40963;52.168;21.296;2023-01-25T02:31:17;28.67;;;11.77;;
55063;SDS011;40963;52.168;21.296;2023-01-25T02:33:43;34.92;;;13.60;;
55063;SDS011;40963;52.168;21.296;2023-01-25T02:39:12;31.25;;;13.40;;
55063;SDS011;40963;52.168;21.296;2023-01-25T02:41:42;26.83;;;13.30;;
55063;SDS011;40963;52.168;21.296;2023-01-25T02:44:13;26.20;;;12.20;;
55063;SDS011;40963;52.168;21.296;2023-01-25T02:46:57;36.75;;;15.85;;
55063;SDS011;40963;52.168;21.296;2023-01-25T02:49:23;30.98;;;13.75;;
55063;SDS011;40963;52.168;21.296;2023-01-25T02:51:50;32.88;;;13.75;;
55063;SDS011;40963;52.168;21.296;2023-01-25T02:54:20;25.58;;;11.98;;
55063;SDS011;40963;52.168;21.296;2023-01-25T02:56:46;34.10;;;12.93;;
55063;SDS011;40963;52.168;21.296;2023-01-25T02:59:12;23.48;;;11.57;;
55063;SDS011;40963;52.168;21.296;2023-01-25T03:01:39;30.15;;;13.18;;
55063;SDS011;40963;52.168;21.296;2023-01-25T03:04:06;29.58;;;13.55;;
55063;SDS011;40963;52.168;21.296;2023-01-25T03:06:32;22.15;;;12.20;;
55063;SDS011;40963;52.168;21.296;2023-01-25T03:08:59;27.73;;;12.50;;
55063;SDS011;40963;52.168;21.296;2023-01-25T03:11:25;22.50;;;11.95;;
55063;SDS011;40963;52.168;21.296;2023-01-25T03:13:51;23.33;;;11.95;;
55063;SDS011;40963;52.168;21.296;2023-01-25T03:16:17;27.95;;;11.13;;
55063;SDS011;40963;52.168;21.296;2023-01-25T03:18:42;29.95;;;13.25;;
55063;SDS011;40963;52.168;21.296;2023-01-25T03:21:12;29.92;;;12.98;;
55063;SDS011;40963;52.168;21.296;2023-01-25T03:23:40;25.83;;;12.05;;
55063;SDS011;40963;52.168;21.296;2023-01-25T03:26:11;30.42;;;11.40;;
55063;SDS011;40963;52.168;21.296;2023-01-25T03:28:44;28.92;;;12.50;;
55063;SDS011;40963;52.168;21.296;2023-01-25T03:31:11;27.52;;;13.70;;
55063;SDS011;40963;52.168;21.296;2023-01-25T03:33:37;25.98;;;11.88;;
55063;SDS011;40963;52.168;21.296;2023-01-25T03:36:03;28.95;;;12.82;;
55063;SDS011;40963;52.168;21.296;2023-01-25T03:38:29;28.05;;;12.75;;
55063;SDS011;40963;52.168;21.296;2023-01-25T03:40:55;23.30;;;11.40;;
55063;SDS011;40963;52.168;21.296;2023-01-25T03:43:21;27.08;;;12.25;;
55063;SDS011;40963;52.168;21.296;2023-01-25T03:45:54;21.63;;;11.10;;
55063;SDS011;40963;52.168;21.296;2023-01-25T03:48:22;25.20;;;11.65;;
55063;SDS011;40963;52.168;21.296;2023-01-25T03:50:48;27.17;;;13.57;;
55063;SDS011;40963;52.168;21.296;2023-01-25T03:53:23;25.83;;;13.70;;
55063;SDS011;40963;52.168;21.296;2023-01-25T03:55:54;25.70;;;13.30;;
55063;SDS011;40963;52.168;21.296;2023-01-25T03:58:24;22.30;;;10.75;;
55063;SDS011;40963;52.168;21.296;2023-01-25T04:00:50;31.63;;;12.45;;
55063;SDS011;40963;52.168;21.296;2023-01-25T04:03:18;23.70;;;11.43;;
55063;SDS011;40963;52.168;21.296;2023-01-25T04:05:45;20.85;;;9.23;;
55063;SDS011;40963;52.168;21.296;2023-01-25T04:08:11;15.00;;;7.70;;
55063;SDS011;40963;52.168;21.296;2023-01-25T04:10:37;8.13;;;4.65;;
55063;SDS011;40963;52.168;21.296;2023-01-25T04:13:03;5.57;;;4.10;;
55063;SDS011;40963;52.168;21.296;2023-01-25T04:15:29;11.60;;;6.53;;
55063;SDS011;40963;52.168;21.296;2023-01-25T04:17:54;7.68;;;5.00;;
55063;SDS011;40963;52.168;21.296;2023-01-25T04:20:21;16.33;;;7.80;;
55063;SDS011;40963;52.168;21.296;2023-01-25T04:22:46;13.05;;;6.60;;
55063;SDS011;40963;52.168;21.296;2023-01-25T04:25:12;10.73;;;6.13;;
55063;SDS011;40963;52.168;21.296;2023-01-25T04:27:38;11.15;;;6.15;;
55063;SDS011;40963;52.168;21.296;2023-01-25T04:30:04;11.18;;;5.65;;
55063;SDS011;40963;52.168;21.296;2023-01-25T04:32:30;8.35;;;4.72;;
55063;SDS011;40963;52.168;21.296;2023-01-25T04:34:58;13.35;;;5.78;;
55063;SDS011;40963;52.168;21.296;2023-01-25T04:37:24;11.60;;;5.82;;
55063;SDS011;40963;52.168;21.296;2023-01-25T04:39:49;7.18;;;4.00;;
55063;SDS011;40963;52.168;21.296;2023-01-25T04:42:15;2.58;;;1.92;;
55063;SDS011;40963;52.168;21.296;2023-01-25T04:44:40;10.73;;;5.75;;
55063;SDS011;40963;52.168;21.296;2023-01-25T04:47:06;9.85;;;4.32;;
55063;SDS011;40963;52.168;21.296;2023-01-25T04:49:32;10.55;;;5.82;;
55063;SDS011;40963;52.168;21.296;2023-01-25T04:51:57;6.43;;;4.18;;
55063;SDS011;40963;52.168;21.296;2023-01-25T04:54:23;13.35;;;5.43;;
55063;SDS011;40963;52.168;21.296;2023-01-25T04:56:48;11.00;;;5.55;;
55063;SDS011;40963;52.168;21.296;2023-01-25T04:59:14;7.15;;;4.82;;
55063;SDS011;40963;52.168;21.296;2023-01-25T05:01:40;8.85;;;5.13;;
55063;SDS011;40963;52.168;21.296;2023-01-25T05:04:05;8.48;;;4.65;;
55063;SDS011;40963;52.168;21.296;2023-01-25T05:06:31;14.70;;;5.05;;
55063;SDS011;40963;52.168;21.296;2023-01-25T05:08:57;6.22;;;4.15;;
55063;SDS011;40963;52.168;21.296;2023-01-25T05:11:22;3.45;;;3.08;;
55063;SDS011;40963;52.168;21.296;2023-01-25T05:13:48;8.80;;;5.30;;
55063;SDS011;40963;52.168;21.296;2023-01-25T05:16:14;8.52;;;5.20;;
55063;SDS011;40963;52.168;21.296;2023-01-25T05:18:39;9.52;;;4.72;;
55063;SDS011;40963;52.168;21.296;2023-01-25T05:21:05;12.88;;;6.45;;
55063;SDS011;40963;52.168;21.296;2023-01-25T05:23:50;14.23;;;6.57;;
55063;SDS011;40963;52.168;21.296;2023-01-25T05:26:16;11.80;;;5.13;;
55063;SDS011;40963;52.168;21.296;2023-01-25T05:29:00;11.40;;;6.00;;
55063;SDS011;40963;52.168;21.296;2023-01-25T05:31:26;7.13;;;4.32;;
55063;SDS011;40963;52.168;21.296;2023-01-25T05:33:51;14.57;;;5.70;;
55063;SDS011;40963;52.168;21.296;2023-01-25T05:36:17;11.90;;;6.45;;
55063;SDS011;40963;52.168;21.296;2023-01-25T05:38:43;8.68;;;5.47;;
55063;SDS011;40963;52.168;21.296;2023-01-25T05:41:08;16.30;;;8.88;;
55063;SDS011;40963;52.168;21.296;2023-01-25T05:43:34;12.35;;;7.13;;
55063;SDS011;40963;52.168;21.296;2023-01-25T05:45:59;13.50;;;6.50;;
55063;SDS011;40963;52.168;21.296;2023-01-25T05:48:26;20.52;;;11.13;;
55063;SDS011;40963;52.168;21.296;2023-01-25T05:50:52;26.92;;;11.18;;
55063;SDS011;40963;52.168;21.296;2023-01-25T05:53:24;32.42;;;13.40;;
55063;SDS011;40963;52.168;21.296;2023-01-25T05:55:50;16.17;;;7.30;;
55063;SDS011;40963;52.168;21.296;2023-01-25T05:58:16;15.73;;;7.85;;
55063;SDS011;40963;52.168;21.296;2023-01-25T06:00:41;15.82;;;7.43;;
55063;SDS011;40963;52.168;21.296;2023-01-25T06:03:07;17.92;;;7.60;;
55063;SDS011;40963;52.168;21.296;2023-01-25T06:05:33;13.75;;;8.50;;
55063;SDS011;40963;52.168;21.296;2023-01-25T06:07:58;28.63;;;10.65;;
55063;SDS011;40963;52.168;21.296;2023-01-25T06:10:24;30.83;;;12.70;;
55063;SDS011;40963;52.168;21.296;2023-01-25T06:12:50;23.67;;;8.60;;
55063;SDS011;40963;52.168;21.296;2023-01-25T06:15:20;19.33;;;8.27;;
55063;SDS011;40963;52.168;21.296;2023-01-25T06:17:46;15.68;;;8.43;;
55063;SDS011;40963;52.168;21.296;2023-01-25T06:20:12;15.95;;;7.95;;
55063;SDS011;40963;52.168;21.296;2023-01-25T06:22:37;17.33;;;8.57;;
55063;SDS011;40963;52.168;21.296;2023-01-25T06:25:03;18.23;;;9.93;;
55063;SDS011;40963;52.168;21.296;2023-01-25T06:27:29;20.42;;;9.75;;
55063;SDS011;40963;52.168;21.296;2023-01-25T06:29:55;13.02;;;6.93;;
55063;SDS011;40963;52.168;21.296;2023-01-25T06:32:21;15.88;;;8.00;;
55063;SDS011;40963;52.168;21.296;2023-01-25T06:34:48;24.17;;;10.88;;
55063;SDS011;40963;52.168;21.296;2023-01-25T06:37:13;20.20;;;8.43;;
55063;SDS011;40963;52.168;21.296;2023-01-25T06:39:39;20.10;;;8.68;;
55063;SDS011;40963;52.168;21.296;2023-01-25T06:42:04;12.90;;;6.32;;
55063;SDS011;40963;52.168;21.296;2023-01-25T06:44:30;26.27;;;12.65;;
55063;SDS011;40963;52.168;21.296;2023-01-25T06:46:56;29.63;;;11.40;;
55063;SDS011;40963;52.168;21.296;2023-01-25T06:49:22;24.55;;;12.52;;
55063;SDS011;40963;52.168;21.296;2023-01-25T06:51:47;28.58;;;13.45;;
55063;SDS011;40963;52.168;21.296;2023-01-25T06:54:13;28.35;;;13.50;;
55063;SDS011;40963;52.168;21.296;2023-01-25T06:56:38;36.75;;;16.27;;
55063;SDS011;40963;52.168;21.296;2023-01-25T06:59:04;38.67;;;17.98;;
55063;SDS011;40963;52.168;21.296;2023-01-25T07:01:30;44.55;;;17.67;;
55063;SDS011;40963;52.168;21.296;2023-01-25T07:03:56;43.70;;;17.88;;
55063;SDS011;40963;52.168;21.296;2023-01-25T07:06:23;45.25;;;18.38;;
55063;SDS011;40963;52.168;21.296;2023-01-25T07:08:50;46.40;;;18.75;;
55063;SDS011;40963;52.168;21.296;2023-01-25T07:11:16;46.63;;;18.90;;
55063;SDS011;40963;52.168;21.296;2023-01-25T07:13:43;28.55;;;13.57;;
55063;SDS011;40963;52.168;21.296;2023-01-25T07:16:11;32.92;;;16.23;;
55063;SDS011;40963;52.168;21.296;2023-01-25T07:18:38;35.50;;;16.20;;
55063;SDS011;40963;52.168;21.296;2023-01-25T07:21:09;44.05;;;19.55;;
55063;SDS011;40963;52.168;21.296;2023-01-25T07:23:38;44.50;;;17.10;;
55063;SDS011;40963;52.168;21.296;2023-01-25T07:26:08;40.65;;;18.38;;
55063;SDS011;40963;52.168;21.296;2023-01-25T07:28:43;43.92;;;17.75;;
55063;SDS011;40963;52.168;21.296;2023-01-25T07:31:09;47.05;;;19.33;;
55063;SDS011;40963;52.168;21.296;2023-01-25T07:33:35;32.63;;;15.25;;
55063;SDS011;40963;52.168;21.296;2023-01-25T07:36:01;32.20;;;13.23;;
55063;SDS011;40963;52.168;21.296;2023-01-25T07:38:27;30.85;;;14.27;;
55063;SDS011;40963;52.168;21.296;2023-01-25T07:40:53;42.25;;;16.23;;
55063;SDS011;40963;52.168;21.296;2023-01-25T07:43:19;39.35;;;16.63;;
55063;SDS011;40963;52.168;21.296;2023-01-25T07:45:45;48.25;;;19.25;;
55063;SDS011;40963;52.168;21.296;2023-01-25T07:48:14;39.15;;;17.52;;
55063;SDS011;40963;52.168;21.296;2023-01-25T07:50:40;41.70;;;15.95;;
55063;SDS011;40963;52.168;21.296;2023-01-25T07:53:06;52.78;;;22.27;;
55063;SDS011;40963;52.168;21.296;2023-01-25T07:55:32;40.90;;;17.98;;
55063;SDS011;40963;52.168;21.296;2023-01-25T07:57:58;40.40;;;14.75;;
55063;SDS011;40963;52.168;21.296;2023-01-25T08:00:25;37.17;;;16.65;;
55063;SDS011;40963;52.168;21.296;2023-01-25T08:02:51;46.78;;;18.48;;
55063;SDS011;40963;52.168;21.296;2023-01-25T08:05:17;45.03;;;20.55;;
55063;SDS011;40963;52.168;21.296;2023-01-25T08:07:43;44.72;;;17.00;;
55063;SDS011;40963;52.168;21.296;2023-01-25T08:10:09;28.98;;;12.48;;
55063;SDS011;40963;52.168;21.296;2023-01-25T08:12:35;21.92;;;11.18;;
55063;SDS011;40963;52.168;21.296;2023-01-25T08:15:02;31.58;;;11.10;;
55063;SDS011;40963;52.168;21.296;2023-01-25T08:17:28;25.90;;;12.50;;
55063;SDS011;40963;52.168;21.296;2023-01-25T08:19:57;36.45;;;15.10;;
55063;SDS011;40963;52.168;21.296;2023-01-25T08:22:24;54.15;;;16.73;;
55063;SDS011;40963;52.168;21.296;2023-01-25T08:24:50;49.45;;;18.48;;
55063;SDS011;40963;52.168;21.296;2023-01-25T08:27:16;48.53;;;17.42;;
55063;SDS011;40963;52.168;21.296;2023-01-25T08:29:42;48.17;;;21.05;;
55063;SDS011;40963;52.168;21.296;2023-01-25T08:32:07;37.30;;;15.93;;
55063;SDS011;40963;52.168;21.296;2023-01-25T08:34:33;40.53;;;17.25;;
55063;SDS011;40963;52.168;21.296;2023-01-25T08:36:59;44.50;;;17.88;;
55063;SDS011;40963;52.168;21.296;2023-01-25T08:39:25;41.85;;;16.95;;
55063;SDS011;40963;52.168;21.296;2023-01-25T08:41:51;43.67;;;17.65;;
55063;SDS011;40963;52.168;21.296;2023-01-25T08:44:17;33.53;;;14.63;;
55063;SDS011;40963;52.168;21.296;2023-01-25T08:46:48;34.90;;;15.40;;
55063;SDS011;40963;52.168;21.296;2023-01-25T08:49:14;42.78;;;18.30;;
55063;SDS011;40963;52.168;21.296;2023-01-25T08:51:40;36.50;;;16.65;;
55063;SDS011;40963;52.168;21.296;2023-01-25T08:54:07;40.67;;;17.65;;
55063;SDS011;40963;52.168;21.296;2023-01-25T08:56:36;37.35;;;13.70;;
55063;SDS011;40963;52.168;21.296;2023-01-25T08:59:02;40.13;;;15.05;;
55063;SDS011;40963;52.168;21.296;2023-01-25T09:01:28;35.47;;;15.60;;
55063;SDS011;40963;52.168;21.296;2023-01-25T09:03:53;37.03;;;14.85;;
55063;SDS011;40963;52.168;21.296;2023-01-25T09:06:19;41.20;;;18.75;;
55063;SDS011;40963;52.168;21.296;2023-01-25T09:08:45;38.80;;;16.23;;
55063;SDS011;40963;52.168;21.296;2023-01-25T09:11:12;18.00;;;6.80;;
55063;SDS011;40963;52.168;21.296;2023-01-25T09:13:39;26.85;;;11.50;;
55063;SDS011;40963;52.168;21.296;2023-01-25T09:16:09;30.02;;;13.40;;
55063;SDS011;40963;52.168;21.296;2023-01-25T09:18:37;39.88;;;15.95;;
55063;SDS011;40963;52.168;21.296;2023-01-25T09:21:07;45.58;;;16.60;;
55063;SDS011;40963;52.168;21.296;2023-01-25T09:23:34;32.90;;;15.23;;
55063;SDS011;40963;52.168;21.296;2023-01-25T09:26:00;32.67;;;14.40;;
55063;SDS011;40963;52.168;21.296;2023-01-25T09:28:27;49.00;;;19.05;;
55063;SDS011;40963;52.168;21.296;2023-01-25T09:30:58;52.05;;;17.25;;
55063;SDS011;40963;52.168;21.296;2023-01-25T09:33:26;32.60;;;14.38;;
55063;SDS011;40963;52.168;21.296;2023-01-25T09:35:54;29.77;;;13.23;;
55063;SDS011;40963;52.168;21.296;2023-01-25T09:38:20;37.03;;;17.02;;
55063;SDS011;40963;52.168;21.296;2023-01-25T09:41:30;11.30;;;6.88;;
55063;SDS011;40963;52.168;21.296;2023-01-25T09:46:21;40.53;;;15.48;;
55063;SDS011;40963;52.168;21.296;2023-01-25T09:54:18;38.90;;;17.42;;
55063;SDS011;40963;52.168;21.296;2023-01-25T09:56:46;46.30;;;16.58;;
55063;SDS011;40963;52.168;21.296;2023-01-25T09:59:15;43.92;;;17.98;;
55063;SDS011;40963;52.168;21.296;2023-01-25T10:01:50;48.35;;;17.08;;
55063;SDS011;40963;52.168;21.296;2023-01-25T10:04:40;47.47;;;18.30;;
55063;SDS011;40963;52.168;21.296;2023-01-25T10:10:13;32.00;;;14.40;;
55063;SDS011;40963;52.168;21.296;2023-01-25T10:13:11;53.78;;;17.73;;
55063;SDS011;40963;52.168;21.296;2023-01-25T10:15:45;39.30;;;16.52;;
55063;SDS011;40963;52.168;21.296;2023-01-25T10:18:40;30.40;;;13.40;;
55063;SDS011;40963;52.168;21.296;2023-01-25T10:21:27;34.42;;;14.48;;
55063;SDS011;40963;52.168;21.296;2023-01-25T10:24:12;36.90;;;15.38;;
55063;SDS011;40963;52.168;21.296;2023-01-25T10:26:47;2.15;;;2.05;;
55063;SDS011;40963;52.168;21.296;2023-01-25T10:29:26;8.73;;;2.60;;
55063;SDS011;40963;52.168;21.296;2023-01-25T10:31:59;32.88;;;12.73;;
55063;SDS011;40963;52.168;21.296;2023-01-25T10:34:38;28.13;;;11.23;;
55063;SDS011;40963;52.168;21.296;2023-01-25T10:37:11;38.38;;;15.70;;
55063;SDS011;40963;52.168;21.296;2023-01-25T10:39:47;33.67;;;15.38;;
55063;SDS011;40963;52.168;21.296;2023-01-25T10:42:23;44.42;;;17.63;;
55063;SDS011;40963;52.168;21.296;2023-01-25T10:44:51;36.22;;;13.63;;
55063;SDS011;40963;52.168;21.296;2023-01-25T10:47:26;46.60;;;18.48;;
55063;SDS011;40963;52.168;21.296;2023-01-25T10:49:56;43.55;;;18.55;;
55063;SDS011;40963;52.168;21.296;2023-01-25T10:55:05;37.95;;;14.88;;
55063;SDS011;40963;52.168;21.296;2023-01-25T10:58:00;48.63;;;20.50;;
55063;SDS011;40963;52.168;21.296;2023-01-25T11:03:01;39.88;;;16.08;;
55063;SDS011;40963;52.168;21.296;2023-01-25T11:08:24;49.50;;;18.65;;
55063;SDS011;40963;52.168;21.296;2023-01-25T11:10:49;49.50;;;19.85;;
55063;SDS011;40963;52.168;21.296;2023-01-25T11:16:12;49.90;;;17.95;;
55063;SDS011;40963;52.168;21.296;2023-01-25T11:18:51;39.15;;;17.08;;
55063;SDS011;40963;52.168;21.296;2023-01-25T11:21:19;52.35;;;18.30;;
55063;SDS011;40963;52.168;21.296;2023-01-25T11:24:01;42.08;;;17.00;;
55063;SDS011;40963;52.168;21.296;2023-01-25T11:26:29;46.35;;;16.67;;
55063;SDS011;40963;52.168;21.296;2023-01-25T11:29:12;58.03;;;18.08;;
55063;SDS011;40963;52.168;21.296;2023-01-25T11:31:48;36.13;;;15.48;;
55063;SDS011;40963;52.168;21.296;2023-01-25T11:34:18;55.88;;;19.65;;
55063;SDS011;40963;52.168;21.296;2023-01-25T11:36:56;41.10;;;15.27;;
55063;SDS011;40963;52.168;21.296;2023-01-25T11:39:33;48.65;;;17.48;;
55063;SDS011;40963;52.168;21.296;2023-01-25T11:45:21;56.45;;;21.15;;
55063;SDS011;40963;52.168;21.296;2023-01-25T11:48:12;34.65;;;14.93;;
55063;SDS011;40963;52.168;21.296;2023-01-25T11:51:05;43.30;;;17.45;;
55063;SDS011;40963;52.168;21.296;2023-01-25T12:02:28;48.92;;;21.33;;
55063;SDS011;40963;52.168;21.296;2023-01-25T12:08:09;41.47;;;18.27;;
55063;SDS011;40963;52.168;21.296;2023-01-25T12:10:40;42.92;;;18.52;;
55063;SDS011;40963;52.168;21.296;2023-01-25T12:21:58;53.50;;;22.00;;
55063;SDS011;40963;52.168;21.296;2023-01-25T12:30:03;50.40;;;18.42;;
55063;SDS011;40963;52.168;21.296;2023-01-25T12:33:08;39.88;;;16.27;;
55063;SDS011;40963;52.168;21.296;2023-01-25T12:35:48;57.47;;;21.15;;
55063;SDS011;40963;52.168;21.296;2023-01-25T12:38:31;39.30;;;16.15;;
55063;SDS011;40963;52.168;21.296;2023-01-25T12:41:03;32.88;;;13.75;;
55063;SDS011;40963;52.168;21.296;2023-01-25T12:43:51;52.70;;;18.05;;
55063;SDS011;40963;52.168;21.296;2023-01-25T12:46:27;47.63;;;17.90;;
55063;SDS011;40963;52.168;21.296;2023-01-25T12:49:12;51.40;;;19.80;;
55063;SDS011;40963;52.168;21.296;2023-01-25T12:51:46;51.35;;;19.42;;
55063;SDS011;40963;52.168;21.296;2023-01-25T12:54:19;57.03;;;21.27;;
55063;SDS011;40963;52.168;21.296;2023-01-25T12:56:53;53.05;;;19.67;;
55063;SDS011;40963;52.168;21.296;2023-01-25T12:59:47;47.42;;;19.25;;
55063;SDS011;40963;52.168;21.296;2023-01-25T13:02:32;42.45;;;15.95;;
55063;SDS011;40963;52.168;21.296;2023-01-25T13:05:17;46.50;;;17.85;;
55063;SDS011;40963;52.168;21.296;2023-01-25T13:08:02;46.75;;;16.73;;
55063;SDS011;40963;52.168;21.296;2023-01-25T13:10:39;53.03;;;19.70;;
55063;SDS011;40963;52.168;21.296;2023-01-25T13:13:19;31.52;;;14.38;;
55063;SDS011;40963;52.168;21.296;2023-01-25T13:15:49;53.53;;;18.65;;
55063;SDS011;40963;52.168;21.296;2023-01-25T13:28:53;52.10;;;20.02;;
55063;SDS011;40963;52.168;21.296;2023-01-25T13:36:51;46.13;;;18.25;;
55063;SDS011;40963;52.168;21.296;2023-01-25T13:44:29;48.47;;;18.42;;
55063;SDS011;40963;52.168;21.296;2023-01-25T13:46:58;44.92;;;15.95;;
55063;SDS011;40963;52.168;21.296;2023-01-25T13:49:27;47.40;;;17.45;;
55063;SDS011;40963;52.168;21.296;2023-01-25T13:52:00;45.97;;;17.02;;
55063;SDS011;40963;52.168;21.296;2023-01-25T13:54:28;57.00;;;19.10;;
55063;SDS011;40963;52.168;21.296;2023-01-25T13:57:04;51.28;;;17.73;;
55063;SDS011;40963;52.168;21.296;2023-01-25T13:59:33;45.65;;;15.68;;
55063;SDS011;40963;52.168;21.296;2023-01-25T14:01:59;47.38;;;17.90;;
55063;SDS011;40963;52.168;21.296;2023-01-25T14:04:26;47.70;;;16.38;;
55063;SDS011;40963;52.168;21.296;2023-01-25T14:06:58;29.98;;;12.05;;
55063;SDS011;40963;52.168;21.296;2023-01-25T14:09:26;51.67;;;18.40;;
55063;SDS011;40963;52.168;21.296;2023-01-25T14:11:54;47.72;;;17.85;;
55063;SDS011;40963;52.168;21.296;2023-01-25T14:14:31;56.75;;;18.48;;
55063;SDS011;40963;52.168;21.296;2023-01-25T14:19:39;43.42;;;15.30;;
55063;SDS011;40963;52.168;21.296;2023-01-25T14:22:30;49.30;;;17.50;;
55063;SDS011;40963;52.168;21.296;2023-01-25T14:27:29;49.75;;;17.58;;
55063;SDS011;40963;52.168;21.296;2023-01-25T14:29:54;53.83;;;19.45;;
55063;SDS011;40963;52.168;21.296;2023-01-25T14:32:20;49.53;;;18.00;;
55063;SDS011;40963;52.168;21.296;2023-01-25T14:34:49;38.65;;;13.98;;
55063;SDS011;40963;52.168;21.296;2023-01-25T14:37:18;16.77;;;8.30;;
55063;SDS011;40963;52.168;21.296;2023-01-25T14:39:46;35.20;;;13.65;;
55063;SDS011;40963;52.168;21.296;2023-01-25T14:42:14;53.35;;;17.85;;
55063;SDS011;40963;52.168;21.296;2023-01-25T14:44:41;48.10;;;18.42;;
55063;SDS011;40963;52.168;21.296;2023-01-25T14:50:27;38.92;;;15.88;;
55063;SDS011;40963;52.168;21.296;2023-01-25T14:52:57;41.95;;;15.30;;
55063;SDS011;40963;52.168;21.296;2023-01-25T14:55:32;46.72;;;14.57;;
55063;SDS011;40963;52.168;21.296;2023-01-25T14:57:59;43.05;;;18.00;;
55063;SDS011;40963;52.168;21.296;2023-01-25T15:00:27;44.65;;;16.38;;
55063;SDS011;40963;52.168;21.296;2023-01-25T15:02:59;38.47;;;14.15;;
55063;SDS011;40963;52.168;21.296;2023-01-25T15:05:30;44.28;;;15.18;;
55063;SDS011;40963;52.168;21.296;2023-01-25T15:10:33;37.20;;;15.00;;
55063;SDS011;40963;52.168;21.296;2023-01-25T15:21:16;39.75;;;16.10;;
55063;SDS011;40963;52.168;21.296;2023-01-25T15:23:50;41.35;;;16.80;;
55063;SDS011;40963;52.168;21.296;2023-01-25T15:26:21;45.03;;;15.93;;
55063;SDS011;40963;52.168;21.296;2023-01-25T15:28:49;43.13;;;16.30;;
55063;SDS011;40963;52.168;21.296;2023-01-25T15:33:44;53.53;;;18.77;;
55063;SDS011;40963;52.168;21.296;2023-01-25T15:36:11;48.90;;;16.50;;
55063;SDS011;40963;52.168;21.296;2023-01-25T15:38:40;47.22;;;16.83;;
55063;SDS011;40963;52.168;21.296;2023-01-25T15:41:06;33.40;;;13.77;;
55063;SDS011;40963;52.168;21.296;2023-01-25T15:43:32;42.67;;;16.55;;
55063;SDS011;40963;52.168;21.296;2023-01-25T15:45:58;47.35;;;16.70;;
55063;SDS011;40963;52.168;21.296;2023-01-25T15:48:27;41.70;;;15.15;;
55063;SDS011;40963;52.168;21.296;2023-01-25T15:50:56;43.83;;;16.55;;
55063;SDS011;40963;52.168;21.296;2023-01-25T15:53:22;50.50;;;18.65;;
55063;SDS011;40963;52.168;21.296;2023-01-25T15:55:56;40.67;;;14.43;;
55063;SDS011;40963;52.168;21.296;2023-01-25T15:58:25;53.42;;;17.20;;
55063;SDS011;40963;52.168;21.296;2023-01-25T16:00:53;58.90;;;17.73;;
55063;SDS011;40963;52.168;21.296;2023-01-25T16:03:19;49.42;;;17.25;;
55063;SDS011;40963;52.168;21.296;2023-01-25T16:05:47;38.33;;;14.90;;
55063;SDS011;40963;52.168;21.296;2023-01-25T16:08:16;47.65;;;18.50;;
55063;SDS011;40963;52.168;21.296;2023-01-25T16:10:43;47.10;;;17.27;;
55063;SDS011;40963;52.168;21.296;2023-01-25T16:13:09;54.65;;;18.58;;
55063;SDS011;40963;52.168;21.296;2023-01-25T16:15:36;41.92;;;16.85;;